createdAt,value
2018-08-31T00:02:17.716Z,19.30
2018-08-31T00:04:52.596Z,19.22
2018-08-31T00:07:31.458Z,19.21
2018-08-31T00:09:59.246Z,19.16
2018-08-31T00:12:28.865Z,19.19
2018-08-31T00:14:57.418Z,19.15
2018-08-31T00:17:25.738Z,19.12
2018-08-31T00:19:53.249Z,19.08
2018-08-31T00:22:21.864Z,19.10
2018-08-31T00:24:50.799Z,19.09
2018-08-31T00:27:26.050Z,19.00
2018-08-31T00:29:59.730Z,18.87
2018-08-31T00:32:29.980Z,18.86
2018-08-31T00:34:57.732Z,18.87
2018-08-31T00:37:26.572Z,18.89
2018-08-31T00:39:54.899Z,18.94
2018-08-31T00:42:23.828Z,18.98
2018-08-31T00:44:52.157Z,19.01
2018-08-31T00:47:19.931Z,19.06
2018-08-31T00:49:48.837Z,19.09
2018-08-31T00:52:16.597Z,19.16
2018-08-31T00:54:46.042Z,19.25
2018-08-31T00:57:14.292Z,19.34
2018-08-31T00:59:42.734Z,19.40
2018-08-31T01:02:10.468Z,19.41
2018-08-31T01:04:39.398Z,19.36
2018-08-31T01:07:07.732Z,19.31
2018-08-31T01:09:35.476Z,19.28
2018-08-31T01:12:03.811Z,19.29
2018-08-31T01:14:32.144Z,19.31
2018-08-31T01:17:01.293Z,19.37
2018-08-31T01:19:29.393Z,19.40
2018-08-31T01:21:57.729Z,19.34
2018-08-31T01:24:25.481Z,19.25
2018-08-31T01:26:55.024Z,19.17
2018-08-31T01:29:22.739Z,19.14
2018-08-31T01:31:50.489Z,19.15
2018-08-31T01:34:19.799Z,19.08
2018-08-31T01:36:47.717Z,19.09
2018-08-31T01:39:16.627Z,19.16
2018-08-31T01:41:44.386Z,19.20
2018-08-31T01:44:13.863Z,19.23
2018-08-31T01:46:41.956Z,19.22
2018-08-31T01:49:10.288Z,19.17
2018-08-31T01:51:38.623Z,19.15
2018-08-31T01:54:06.374Z,19.15
2018-08-31T01:56:35.730Z,19.18
2018-08-31T01:59:03.491Z,19.23
2018-08-31T02:01:32.628Z,19.29
2018-08-31T02:04:00.968Z,19.37
2018-08-31T02:06:30.213Z,19.47
2018-08-31T02:08:57.958Z,19.52
2018-08-31T02:11:26.307Z,19.56
2018-08-31T02:13:56.049Z,19.61
2018-08-31T02:16:24.376Z,19.67
2018-08-31T02:18:53.407Z,19.68
2018-08-31T02:21:21.155Z,19.62
2018-08-31T02:23:50.076Z,19.59
2018-08-31T02:26:17.815Z,19.58
2018-08-31T02:28:46.729Z,19.60
2018-08-31T02:31:14.491Z,19.62
2018-08-31T02:33:42.822Z,19.62
2018-08-31T02:36:11.740Z,19.55
2018-08-31T02:38:39.484Z,19.51
2018-08-31T02:41:08.393Z,19.52
2018-08-31T02:43:36.154Z,19.49
2018-08-31T02:46:05.062Z,19.50
2018-08-31T02:48:33.856Z,19.52
2018-08-31T02:51:02.185Z,19.47
2018-08-31T02:53:29.929Z,19.44
2018-08-31T02:55:59.124Z,19.43
2018-08-31T02:58:26.904Z,19.45
2018-08-31T03:00:56.086Z,19.47
2018-08-31T03:03:23.840Z,19.47
2018-08-31T03:05:53.005Z,19.43
2018-08-31T03:08:21.347Z,19.38
2018-08-31T03:10:49.299Z,19.36
2018-08-31T03:13:18.856Z,19.31
2018-08-31T03:15:46.621Z,19.27
2018-08-31T03:18:15.535Z,19.25
2018-08-31T03:20:43.866Z,19.24
2018-08-31T03:23:12.210Z,19.25
2018-08-31T03:25:40.556Z,19.28
2018-08-31T03:28:08.304Z,19.33
2018-08-31T03:30:36.645Z,19.40
2018-08-31T03:33:05.847Z,19.44
2018-08-31T03:35:34.183Z,19.49
2018-08-31T03:38:03.089Z,19.57
2018-08-31T03:40:30.840Z,19.62
2018-08-31T03:42:59.756Z,19.63
2018-08-31T03:45:28.948Z,19.62
2018-08-31T03:47:57.276Z,19.56
2018-08-31T03:50:25.024Z,19.45
2018-08-31T03:52:53.938Z,19.36
2018-08-31T03:55:22.396Z,19.36
2018-08-31T03:57:50.148Z,19.34
2018-08-31T04:00:19.089Z,19.37
2018-08-31T04:02:47.412Z,19.40
2018-08-31T04:05:15.757Z,19.50
2018-08-31T04:07:43.500Z,19.60
2018-08-31T04:10:13.314Z,19.63
2018-08-31T04:12:41.620Z,19.65
2018-08-31T04:15:09.406Z,19.70
2018-08-31T04:17:37.707Z,19.77
2018-08-31T04:20:05.453Z,19.77
2018-08-31T04:22:34.374Z,19.80
2018-08-31T04:25:03.207Z,19.82
2018-08-31T04:27:31.310Z,19.83
2018-08-31T04:29:59.206Z,19.86
2018-08-31T04:32:27.537Z,19.83
2018-08-31T04:34:55.863Z,19.82
2018-08-31T04:37:24.224Z,19.85
2018-08-31T04:39:53.106Z,19.90
2018-08-31T04:42:21.488Z,19.96
2018-08-31T04:44:49.820Z,20.02
2018-08-31T04:47:18.649Z,20.06
2018-08-31T04:49:46.178Z,20.02
2018-08-31T04:52:14.510Z,20.04
2018-08-31T04:54:43.027Z,20.04
2018-08-31T04:57:12.134Z,20.04
2018-08-31T04:59:40.821Z,20.09
2018-08-31T05:02:09.298Z,20.13
2018-08-31T05:04:37.990Z,20.18
2018-08-31T05:07:05.748Z,20.20
2018-08-31T05:09:35.115Z,20.21
2018-08-31T05:12:04.278Z,20.24
2018-08-31T05:14:32.023Z,20.28
2018-08-31T05:17:00.358Z,20.29
2018-08-31T05:19:29.272Z,20.28
2018-08-31T05:21:57.849Z,20.28
2018-08-31T05:24:26.410Z,20.29
2018-08-31T05:26:54.739Z,20.31
2018-08-31T05:29:22.497Z,20.35
2018-08-31T05:31:50.926Z,20.42
2018-08-31T05:34:20.418Z,20.42
2018-08-31T05:36:48.754Z,20.38
2018-08-31T05:39:16.505Z,20.45
2018-08-31T05:41:45.407Z,20.49
2018-08-31T05:44:13.739Z,20.49
2018-08-31T05:46:42.066Z,20.47
2018-08-31T05:49:10.394Z,20.50
2018-08-31T05:51:38.742Z,20.58
2018-08-31T05:54:07.075Z,20.63
2018-08-31T05:56:34.832Z,20.63
2018-08-31T05:59:03.991Z,20.64
2018-08-31T06:01:32.315Z,20.70
2018-08-31T06:04:02.455Z,20.73
2018-08-31T06:06:29.239Z,20.71
2018-08-31T06:08:56.987Z,20.60
2018-08-31T06:11:25.337Z,20.60
2018-08-31T06:13:53.881Z,20.62
2018-08-31T06:16:22.002Z,20.54
2018-08-31T06:18:50.926Z,20.44
2018-08-31T06:21:19.582Z,20.36
2018-08-31T06:23:47.905Z,20.38
2018-08-31T06:26:17.243Z,20.31
2018-08-31T06:28:45.313Z,20.27
2018-08-31T06:31:14.221Z,20.30
2018-08-31T06:33:42.587Z,20.38
2018-08-31T06:36:10.285Z,20.34
2018-08-31T06:38:38.626Z,20.30
2018-08-31T06:41:06.954Z,20.27
2018-08-31T06:43:35.888Z,20.27
2018-08-31T06:46:03.638Z,20.32
2018-08-31T06:48:32.547Z,20.38
2018-08-31T06:51:00.877Z,20.42
2018-08-31T06:53:28.615Z,20.50
2018-08-31T06:55:57.788Z,20.68
2018-08-31T06:58:26.096Z,20.93
2018-08-31T07:00:54.089Z,21.04
2018-08-31T07:03:22.818Z,21.10
2018-08-31T07:05:51.624Z,21.14
2018-08-31T07:08:19.952Z,21.10
2018-08-31T07:10:47.706Z,21.12
2018-08-31T07:13:16.661Z,21.01
2018-08-31T07:15:44.392Z,20.95
2018-08-31T07:18:13.703Z,20.89
2018-08-31T07:20:41.615Z,20.82
2018-08-31T07:23:10.486Z,20.78
2018-08-31T07:25:38.814Z,20.75
2018-08-31T07:28:07.130Z,20.75
2018-08-31T07:30:35.454Z,20.67
2018-08-31T07:33:03.194Z,20.65
2018-08-31T07:35:32.338Z,20.65
2018-08-31T07:38:00.437Z,20.74
2018-08-31T07:40:28.750Z,20.79
2018-08-31T07:42:57.127Z,20.79
2018-08-31T07:45:25.793Z,20.87
2018-08-31T07:47:54.205Z,20.87
2018-08-31T07:50:21.901Z,20.86
2018-08-31T07:52:50.800Z,20.67
2018-08-31T07:55:19.125Z,20.51
2018-08-31T07:57:47.454Z,20.58
2018-08-31T08:00:15.772Z,20.74
2018-08-31T08:02:44.107Z,20.83
2018-08-31T08:05:12.439Z,20.81
2018-08-31T08:07:40.915Z,20.90
2018-08-31T08:10:10.637Z,20.90
2018-08-31T08:12:38.965Z,20.90
2018-08-31T08:15:07.630Z,20.99
2018-08-31T08:17:35.994Z,21.05
2018-08-31T08:20:05.321Z,20.93
2018-08-31T08:22:33.624Z,20.78
2018-08-31T08:25:02.871Z,20.72
2018-08-31T08:27:31.565Z,20.76
2018-08-31T08:29:59.286Z,20.80
2018-08-31T08:32:29.775Z,20.88
2018-08-31T08:34:56.925Z,20.90
2018-08-31T08:37:25.879Z,21.04
2018-08-31T08:39:54.461Z,21.08
2018-08-31T08:42:23.709Z,21.15
2018-08-31T08:44:51.775Z,21.16
2018-08-31T08:47:20.184Z,21.06
2018-08-31T08:49:49.377Z,21.04
2018-08-31T08:52:17.701Z,21.06
2018-08-31T08:54:45.453Z,21.11
2018-08-31T09:00:26.121Z,21.39
2018-08-31T09:02:54.528Z,21.48
2018-08-31T09:05:23.426Z,21.66
2018-08-31T09:07:51.248Z,21.80
2018-08-31T09:10:20.167Z,21.79
2018-08-31T09:13:15.677Z,21.75
2018-08-31T09:15:44.023Z,21.72
2018-08-31T09:18:12.637Z,21.66
2018-08-31T09:20:41.321Z,21.56
2018-08-31T09:23:08.471Z,21.46
2018-08-31T09:25:37.388Z,21.51
2018-08-31T09:28:05.868Z,21.48
2018-08-31T09:30:34.971Z,21.52
2018-08-31T09:33:03.805Z,21.64
2018-08-31T09:35:32.234Z,21.61
2018-08-31T09:38:00.604Z,21.62
2018-08-31T09:40:31.100Z,21.50
2018-08-31T09:42:59.547Z,21.36
2018-08-31T09:45:26.455Z,21.33
2018-08-31T09:47:54.434Z,21.39
2018-08-31T09:50:23.330Z,21.43
2018-08-31T09:52:51.911Z,21.42
2018-08-31T09:55:20.243Z,21.24
2018-08-31T09:57:48.565Z,21.13
2018-08-31T10:00:17.229Z,21.01
2018-08-31T10:02:45.540Z,20.90
2018-08-31T10:05:13.857Z,20.76
2018-08-31T10:07:43.062Z,20.62
2018-08-31T10:10:11.361Z,20.63
2018-08-31T10:12:40.944Z,20.71
2018-08-31T10:15:09.049Z,20.74
2018-08-31T10:17:38.537Z,20.71
2018-08-31T10:20:06.858Z,20.64
2018-08-31T10:22:34.991Z,20.73
2018-08-31T10:25:03.317Z,20.53
2018-08-31T10:27:32.441Z,20.41
2018-08-31T10:30:01.404Z,20.32
2018-08-31T10:32:29.912Z,20.15
2018-08-31T10:34:58.820Z,20.01
2018-08-31T10:37:26.564Z,19.98
2018-08-31T10:39:54.928Z,19.85
2018-08-31T10:42:23.838Z,19.73
2018-08-31T10:44:51.592Z,19.74
2018-08-31T10:47:19.920Z,19.87
2018-08-31T10:49:49.105Z,19.82
2018-08-31T10:52:16.846Z,19.77
2018-08-31T10:54:45.744Z,19.67
2018-08-31T10:57:13.509Z,19.58
2018-08-31T10:59:42.193Z,19.51
2018-08-31T11:02:10.518Z,19.41
2018-08-31T11:04:39.426Z,19.45
2018-08-31T11:07:07.169Z,19.50
2018-08-31T11:09:35.526Z,19.55
2018-08-31T11:12:04.436Z,19.53
2018-08-31T11:14:32.767Z,19.62
2018-08-31T11:17:00.501Z,19.76
2018-08-31T11:19:29.412Z,19.82
2018-08-31T11:21:58.087Z,19.97
2018-08-31T11:24:26.408Z,20.04
2018-08-31T11:26:54.462Z,20.06
2018-08-31T11:29:23.364Z,20.08
2018-08-31T11:31:52.441Z,20.26
2018-08-31T11:34:21.669Z,20.53
2018-08-31T11:36:50.782Z,20.82
2018-08-31T11:39:19.117Z,21.07
2018-08-31T11:41:47.686Z,21.29
2018-08-31T11:44:16.030Z,21.50
2018-08-31T11:46:44.349Z,21.52
2018-08-31T11:49:12.667Z,21.43
2018-08-31T11:51:40.991Z,21.54
2018-08-31T11:54:08.734Z,21.61
2018-08-31T11:56:38.255Z,21.73
2018-08-31T11:59:06.200Z,21.90
2018-08-31T12:01:34.028Z,21.85
2018-08-31T12:04:02.267Z,21.84
2018-08-31T12:06:31.172Z,21.66
2018-08-31T12:08:59.488Z,21.72
2018-08-31T12:11:27.263Z,21.79
2018-08-31T12:13:55.743Z,21.90
2018-08-31T12:16:24.196Z,22.18
2018-08-31T12:18:52.377Z,22.23
2018-08-31T12:21:21.875Z,22.16
2018-08-31T12:23:49.977Z,22.15
2018-08-31T12:26:17.718Z,22.15
2018-08-31T12:28:46.627Z,22.06
2018-08-31T12:31:14.955Z,21.80
2018-08-31T12:33:42.695Z,21.69
2018-08-31T12:36:11.602Z,21.59
2018-08-31T12:38:39.943Z,21.43
2018-08-31T12:41:07.696Z,21.53
2018-08-31T12:43:36.618Z,21.61
2018-08-31T12:46:04.365Z,21.88
2018-08-31T12:48:33.290Z,21.99
2018-08-31T12:51:01.607Z,22.11
2018-08-31T12:53:29.925Z,22.06
2018-08-31T12:55:57.726Z,21.97
2018-08-31T12:58:26.648Z,21.96
2018-08-31T13:00:54.957Z,21.97
2018-08-31T13:03:23.287Z,21.87
2018-08-31T13:05:51.614Z,21.75
2018-08-31T13:08:19.361Z,21.60
2018-08-31T13:10:48.269Z,21.49
2018-08-31T13:13:16.057Z,21.41
2018-08-31T13:15:44.543Z,21.43
2018-08-31T13:18:13.434Z,21.59
2018-08-31T13:20:42.182Z,21.80
2018-08-31T13:23:09.921Z,21.87
2018-08-31T13:25:40.464Z,22.19
2018-08-31T13:28:08.808Z,22.25
2018-08-31T13:30:37.139Z,22.49
2018-08-31T13:33:04.891Z,22.57
2018-08-31T13:35:33.256Z,22.68
2018-08-31T13:38:02.311Z,22.57
2018-08-31T13:40:30.500Z,22.76
2018-08-31T13:42:58.818Z,23.00
2018-08-31T13:45:26.563Z,22.84
2018-08-31T13:47:55.503Z,22.56
2018-08-31T13:50:23.254Z,22.79
2018-08-31T13:52:51.572Z,23.13
2018-08-31T13:55:20.479Z,23.35
2018-08-31T13:57:48.809Z,23.05
2018-08-31T14:00:18.230Z,22.66
2018-08-31T14:02:47.184Z,22.45
2018-08-31T14:05:14.926Z,22.31
2018-08-31T14:07:43.288Z,22.36
2018-08-31T14:10:12.218Z,22.36
2018-08-31T14:12:40.556Z,22.15
2018-08-31T14:15:10.361Z,21.90
2018-08-31T14:17:42.632Z,21.82
2018-08-31T14:20:11.002Z,21.84
2018-08-31T14:22:38.755Z,21.92
2018-08-31T14:25:07.687Z,21.90
2018-08-31T14:27:35.425Z,21.95
2018-08-31T14:30:05.158Z,21.94
2018-08-31T14:32:33.376Z,21.93
2018-08-31T14:35:02.216Z,22.11
2018-08-31T14:37:30.565Z,22.53
2018-08-31T14:40:00.107Z,22.91
2018-08-31T14:42:29.179Z,23.14
2018-08-31T14:44:57.058Z,23.06
2018-08-31T14:47:25.481Z,23.11
2018-08-31T14:49:54.598Z,23.28
2018-08-31T14:52:23.709Z,23.68
2018-08-31T14:54:52.423Z,23.93
2018-08-31T14:57:21.302Z,23.68
2018-08-31T14:59:50.675Z,23.61
2018-08-31T15:02:18.992Z,23.47
2018-08-31T15:04:47.578Z,23.22
2018-08-31T15:07:16.573Z,23.17
2018-08-31T15:09:43.768Z,23.19
2018-08-31T15:12:12.611Z,22.77
2018-08-31T15:14:40.930Z,23.13
2018-08-31T15:17:09.902Z,23.00
2018-08-31T15:19:38.242Z,23.03
2018-08-31T15:22:06.596Z,23.15
2018-08-31T15:24:35.421Z,23.08
2018-08-31T15:27:03.744Z,23.15
2018-08-31T15:29:32.956Z,23.24
2018-08-31T15:32:01.275Z,23.15
2018-08-31T15:34:29.601Z,22.89
2018-08-31T15:36:58.030Z,22.65
2018-08-31T15:39:27.237Z,22.38
2018-08-31T15:41:54.904Z,22.06
2018-08-31T15:44:22.653Z,21.97
2018-08-31T15:46:51.557Z,21.93
2018-08-31T15:49:19.883Z,21.82
2018-08-31T15:51:47.875Z,21.82
2018-08-31T15:54:20.253Z,21.80
2018-08-31T15:56:48.031Z,21.84
2018-08-31T15:59:17.444Z,21.92
2018-08-31T16:01:45.817Z,21.87
2018-08-31T16:04:14.288Z,21.81
2018-08-31T16:06:42.063Z,21.75
2018-08-31T16:09:13.164Z,21.63
2018-08-31T16:11:40.924Z,21.62
2018-08-31T16:14:09.251Z,21.60
2018-08-31T16:16:38.364Z,21.58
2018-08-31T16:19:07.023Z,21.57
2018-08-31T16:21:35.295Z,21.59
2018-08-31T16:24:03.630Z,21.61
2018-08-31T16:26:31.953Z,21.55
2018-08-31T16:29:00.295Z,21.47
2018-08-31T16:31:29.235Z,21.42
2018-08-31T16:33:56.785Z,21.35
2018-08-31T16:36:26.063Z,21.31
2018-08-31T16:38:54.875Z,21.32
2018-08-31T16:41:23.115Z,21.41
2018-08-31T16:43:51.727Z,21.36
2018-08-31T16:46:19.469Z,21.18
2018-08-31T16:48:47.793Z,21.04
2018-08-31T16:51:16.715Z,20.95
2018-08-31T16:53:45.047Z,20.92
2018-08-31T16:56:12.790Z,20.89
2018-08-31T16:58:41.684Z,20.88
2018-08-31T17:01:10.009Z,20.86
2018-08-31T17:03:37.748Z,20.80
2018-08-31T17:06:06.676Z,20.80
2018-08-31T17:08:35.007Z,20.78
2018-08-31T17:11:02.783Z,20.72
2018-08-31T17:13:31.719Z,20.66
2018-08-31T17:16:00.662Z,20.60
2018-08-31T17:18:28.614Z,20.56
2018-08-31T17:20:57.001Z,20.49
2018-08-31T17:23:25.339Z,20.42
2018-08-31T17:25:53.661Z,20.39
2018-08-31T17:28:22.339Z,20.37
2018-08-31T17:30:51.993Z,20.37
2018-08-31T17:33:25.051Z,20.28
2018-08-31T17:35:55.932Z,20.24
2018-08-31T17:38:23.684Z,20.23
2018-08-31T17:40:52.613Z,20.18
2018-08-31T17:43:21.659Z,20.07
2018-08-31T17:45:49.983Z,20.01
2018-08-31T17:48:18.318Z,19.98
2018-08-31T17:50:46.660Z,19.94
2018-08-31T17:53:14.425Z,19.92
2018-08-31T17:55:42.772Z,19.89
2018-08-31T17:58:11.184Z,19.85
2018-08-31T18:00:39.460Z,19.80
2018-08-31T18:03:08.290Z,19.73
2018-08-31T18:05:37.218Z,19.69
2018-08-31T18:08:05.546Z,19.59
2018-08-31T18:10:33.878Z,19.53
2018-08-31T18:13:02.208Z,19.46
2018-08-31T18:15:30.673Z,19.38
2018-08-31T18:17:59.034Z,19.35
2018-08-31T18:20:27.406Z,19.34
2018-08-31T18:22:55.240Z,19.32
2018-08-31T18:25:24.097Z,19.26
2018-08-31T18:27:52.516Z,19.17
2018-08-31T18:30:20.862Z,19.12
2018-08-31T18:32:49.233Z,19.10
2018-08-31T18:35:16.985Z,19.08
2018-08-31T18:37:45.940Z,19.08
2018-08-31T18:40:14.336Z,19.06
2018-08-31T18:42:42.754Z,19.02
2018-08-31T18:45:11.091Z,18.97
2018-08-31T18:47:39.658Z,18.95
2018-08-31T18:50:07.237Z,18.93
2018-08-31T18:52:36.285Z,18.90
2018-08-31T18:55:04.547Z,18.85
2018-08-31T18:57:33.132Z,18.77
2018-08-31T19:00:01.233Z,18.72
2018-08-31T19:02:29.580Z,18.68
2018-08-31T19:04:58.005Z,18.68
2018-08-31T19:07:26.373Z,18.65
2018-08-31T19:09:54.194Z,18.61
2018-08-31T19:12:23.043Z,18.61
2018-08-31T19:14:51.404Z,18.60
2018-08-31T19:17:19.162Z,18.56
2018-08-31T19:19:47.572Z,18.55
2018-08-31T19:22:16.974Z,18.50
2018-08-31T19:24:45.355Z,18.49
2018-08-31T19:27:13.706Z,18.48
2018-08-31T19:29:42.069Z,18.52
2018-08-31T19:32:09.845Z,18.51
2018-08-31T19:34:38.756Z,18.49
2018-08-31T19:37:08.682Z,18.44
2018-08-31T19:39:36.022Z,18.39
2018-08-31T19:42:03.788Z,18.37
2018-08-31T19:44:32.132Z,18.33
2018-08-31T19:47:00.489Z,18.35
2018-08-31T19:49:28.838Z,18.40
2018-08-31T19:51:57.436Z,18.36
2018-08-31T19:54:25.830Z,18.34
2018-08-31T19:56:53.985Z,18.39
2018-08-31T19:59:21.739Z,18.35
2018-08-31T20:01:50.838Z,18.30
2018-08-31T20:04:18.590Z,18.24
2018-08-31T20:06:47.500Z,18.21
2018-08-31T20:09:15.250Z,18.20
2018-08-31T20:11:44.179Z,18.25
2018-08-31T20:14:12.538Z,18.20
2018-08-31T20:16:41.102Z,18.21
2018-08-31T20:19:09.229Z,18.20
2018-08-31T20:21:37.786Z,18.22
2018-08-31T20:26:34.295Z,18.16
2018-08-31T20:29:02.617Z,18.15
2018-08-31T20:31:30.964Z,18.15
2018-08-31T20:33:59.302Z,18.09
2018-08-31T20:36:27.050Z,18.11
2018-08-31T20:38:56.017Z,18.07
2018-08-31T20:41:24.391Z,18.09
2018-08-31T20:43:52.697Z,18.11
2018-08-31T20:46:21.795Z,18.08
2018-08-31T20:48:49.558Z,18.08
2018-08-31T20:51:18.458Z,18.04
2018-08-31T20:53:46.832Z,18.03
2018-08-31T20:56:15.167Z,18.02
2018-08-31T20:58:44.520Z,17.98
2018-08-31T21:01:12.272Z,17.93
2018-08-31T21:03:41.183Z,17.88
2018-08-31T21:06:09.513Z,17.91
2018-08-31T21:08:37.874Z,17.93
2018-08-31T21:11:06.768Z,17.96
2018-08-31T21:13:35.091Z,17.97
2018-08-31T21:16:02.864Z,17.96
2018-08-31T21:18:31.771Z,17.93
2018-08-31T21:21:00.144Z,17.93
2018-08-31T21:23:28.481Z,17.94
2018-08-31T21:25:56.812Z,17.92
2018-08-31T21:28:25.703Z,17.91
2018-08-31T21:30:54.030Z,17.85
2018-08-31T21:33:22.354Z,17.85
2018-08-31T21:35:51.279Z,17.83
2018-08-31T21:38:18.433Z,17.81
2018-08-31T21:40:47.336Z,17.77
2018-08-31T21:43:15.098Z,17.74
2018-08-31T21:45:43.524Z,17.73
2018-08-31T21:48:11.767Z,17.68
2018-08-31T21:50:40.668Z,17.62
2018-08-31T21:53:08.999Z,17.63
2018-08-31T21:55:37.324Z,17.64
2018-08-31T21:58:05.654Z,17.63
2018-08-31T22:00:42.181Z,17.62
2018-08-31T22:03:22.396Z,17.62
2018-08-31T22:05:48.177Z,17.63
2018-08-31T22:08:16.561Z,17.59
2018-08-31T22:10:44.827Z,17.58
2018-08-31T22:13:13.743Z,17.55
2018-08-31T22:15:42.061Z,17.53
2018-08-31T22:18:10.385Z,17.52
2018-08-31T22:20:38.705Z,17.53
2018-08-31T22:23:07.021Z,17.51
2018-08-31T22:25:35.351Z,17.46
2018-08-31T22:28:03.696Z,17.42
2018-08-31T22:30:32.069Z,17.42
2018-08-31T22:32:59.847Z,17.39
2018-08-31T22:35:28.775Z,17.40
2018-08-31T22:37:56.569Z,17.38
2018-08-31T22:40:25.104Z,17.37
2018-08-31T22:42:53.192Z,17.36
2018-08-31T22:45:22.103Z,17.38
2018-08-31T22:47:50.434Z,17.39
2018-08-31T22:50:18.763Z,17.36
2018-08-31T22:52:47.111Z,17.40
2018-08-31T22:55:15.182Z,17.38
2018-08-31T22:57:43.764Z,17.36
2018-08-31T23:00:11.509Z,17.33
2018-08-31T23:02:40.410Z,17.33
2018-08-31T23:05:08.157Z,17.33
2018-08-31T23:07:36.498Z,17.33
2018-08-31T23:10:05.451Z,17.32
2018-08-31T23:12:33.196Z,17.29
2018-08-31T23:15:02.102Z,17.33
2018-08-31T23:17:29.853Z,17.37
2018-08-31T23:19:58.178Z,17.33
2018-08-31T23:22:27.081Z,17.32
2018-08-31T23:24:54.849Z,17.29
2018-08-31T23:27:23.766Z,17.27
2018-08-31T23:29:51.513Z,17.29
2018-08-31T23:32:20.460Z,17.29
2018-08-31T23:34:48.317Z,17.25
2018-08-31T23:37:17.120Z,17.24
2018-08-31T23:39:45.449Z,17.24
2018-08-31T23:42:13.781Z,17.23
2018-08-31T23:44:42.113Z,17.21
2018-08-31T23:47:10.443Z,17.19
2018-08-31T23:49:38.504Z,17.15
2018-08-31T23:52:08.049Z,17.16
2018-08-31T23:54:35.059Z,17.15
2018-08-31T23:57:03.403Z,17.16
2018-08-31T23:59:32.536Z,17.15
